createdAt,value
2022-08-01T00:00:10.426Z,21.39
2022-08-01T00:02:39.746Z,21.39
2022-08-01T00:05:11.629Z,21.33
2022-08-01T00:07:39.794Z,21.33
2022-08-01T00:10:10.915Z,21.19
2022-08-01T00:12:39.174Z,21.16
2022-08-01T00:15:08.951Z,21.23
2022-08-01T00:17:37.581Z,21.13
2022-08-01T00:20:08.448Z,21.13
2022-08-01T00:22:37.836Z,21.14
2022-08-01T00:25:07.138Z,21.07
2022-08-01T00:27:37.619Z,21.11
2022-08-01T00:30:13.686Z,21.06
2022-08-01T00:32:43.303Z,21.08
2022-08-01T00:35:11.323Z,21.17
2022-08-01T00:37:40.783Z,21.11
2022-08-01T00:40:09.944Z,21.10
2022-08-01T00:42:42.991Z,21.15
2022-08-01T00:45:12.213Z,21.17
2022-08-01T00:47:40.810Z,21.15
2022-08-01T00:50:10.169Z,21.12
2022-08-01T00:52:41.294Z,21.06
2022-08-01T00:55:14.909Z,21.12
2022-08-01T00:58:02.859Z,21.17
2022-08-01T01:00:32.872Z,21.12
2022-08-01T01:03:03.085Z,21.14
2022-08-01T01:05:37.416Z,21.10
2022-08-01T01:08:10.820Z,21.01
2022-08-01T01:10:45.221Z,20.82
2022-08-01T01:13:17.984Z,20.81
2022-08-01T01:15:49.840Z,20.80
2022-08-01T01:18:24.379Z,20.78
2022-08-01T01:21:00.009Z,20.81
2022-08-01T01:23:48.152Z,20.81
2022-08-01T01:26:28.284Z,20.88
2022-08-01T01:29:03.816Z,20.84
2022-08-01T01:31:34.921Z,20.74
2022-08-01T01:34:06.654Z,20.79
2022-08-01T01:36:35.961Z,20.76
2022-08-01T01:39:04.057Z,20.83
2022-08-01T01:41:33.278Z,20.81
2022-08-01T01:44:03.958Z,20.80
2022-08-01T01:46:34.088Z,20.78
2022-08-01T01:49:03.410Z,20.76
2022-08-01T01:51:32.232Z,20.78
2022-08-01T01:54:01.490Z,20.70
2022-08-01T01:56:31.971Z,20.66
2022-08-01T01:59:04.573Z,20.69
2022-08-01T02:01:57.999Z,20.72
2022-08-01T02:04:25.561Z,20.74
2022-08-01T02:06:55.009Z,20.73
2022-08-01T02:09:23.986Z,20.82
2022-08-01T02:12:08.110Z,20.85
2022-08-01T02:14:41.106Z,20.91
2022-08-01T02:17:11.949Z,20.92
2022-08-01T02:19:41.073Z,20.85
2022-08-01T02:22:13.107Z,20.90
2022-08-01T02:24:46.766Z,20.89
2022-08-01T02:27:19.093Z,20.85
2022-08-01T02:29:54.418Z,20.82
2022-08-01T02:32:30.115Z,20.68
2022-08-01T02:34:59.777Z,20.58
2022-08-01T02:37:30.727Z,20.47
2022-08-01T02:39:58.903Z,20.51
2022-08-01T02:42:28.606Z,20.54
2022-08-01T02:44:59.442Z,20.53
2022-08-01T02:47:29.787Z,20.47
2022-08-01T02:49:58.269Z,20.41
2022-08-01T02:52:28.499Z,20.44
2022-08-01T02:54:59.872Z,20.45
2022-08-01T02:57:39.488Z,20.35
2022-08-01T03:00:24.700Z,20.39
2022-08-01T03:02:57.100Z,20.48
2022-08-01T03:05:27.859Z,20.34
2022-08-01T03:08:02.585Z,20.38
2022-08-01T03:10:33.424Z,20.47
2022-08-01T03:13:03.574Z,20.46
2022-08-01T03:15:35.833Z,20.38
2022-08-01T03:18:07.149Z,20.44
2022-08-01T03:20:36.157Z,20.46
2022-08-01T03:23:07.667Z,20.46
2022-08-01T03:25:38.604Z,20.50
2022-08-01T03:28:08.877Z,20.46
2022-08-01T03:30:40.092Z,20.52
2022-08-01T03:33:08.284Z,20.52
2022-08-01T03:35:39.701Z,20.52
2022-08-01T03:38:15.822Z,20.52
2022-08-01T03:40:49.820Z,20.58
2022-08-01T03:43:19.289Z,20.79
2022-08-01T03:45:52.664Z,20.60
2022-08-01T03:48:21.299Z,20.75
2022-08-01T03:50:52.374Z,20.59
2022-08-01T03:53:24.263Z,20.57
2022-08-01T03:55:53.945Z,20.56
2022-08-01T03:58:23.436Z,20.57
2022-08-01T04:00:53.478Z,20.58
2022-08-01T04:03:21.961Z,20.51
2022-08-01T04:05:49.987Z,20.43
2022-08-01T04:08:18.106Z,20.48
2022-08-01T04:10:46.079Z,20.58
2022-08-01T04:13:14.717Z,20.59
2022-08-01T04:15:42.717Z,20.56
2022-08-01T04:18:12.085Z,20.55
2022-08-01T04:20:40.037Z,20.43
2022-08-01T04:23:10.107Z,20.41
2022-08-01T04:25:40.883Z,20.42
2022-08-01T04:28:17.249Z,20.43
2022-08-01T04:30:48.304Z,20.49
2022-08-01T04:33:20.842Z,20.49
2022-08-01T04:36:01.665Z,20.54
2022-08-01T04:38:37.668Z,20.56
2022-08-01T04:41:09.278Z,20.72
2022-08-01T04:43:38.211Z,20.58
2022-08-01T04:46:07.778Z,20.60
2022-08-01T04:48:39.933Z,20.49
2022-08-01T04:51:14.677Z,20.51
2022-08-01T04:53:43.429Z,20.48
2022-08-01T04:56:14.065Z,20.52
2022-08-01T04:58:42.962Z,20.58
2022-08-01T05:01:11.864Z,20.60
2022-08-01T05:03:41.330Z,20.63
2022-08-01T05:06:09.382Z,20.64
2022-08-01T05:08:37.978Z,20.63
2022-08-01T05:11:06.379Z,20.60
2022-08-01T05:13:34.286Z,20.61
2022-08-01T05:16:04.678Z,20.62
2022-08-01T05:18:32.784Z,20.65
2022-08-01T05:21:03.037Z,20.65
2022-08-01T05:23:41.758Z,20.66
2022-08-01T05:26:10.896Z,20.69
2022-08-01T05:28:38.919Z,20.67
2022-08-01T05:31:06.844Z,20.60
2022-08-01T05:33:34.768Z,20.61
2022-08-01T05:36:04.005Z,20.59
2022-08-01T05:38:31.976Z,20.61
2022-08-01T05:41:00.080Z,20.59
2022-08-01T05:43:29.058Z,20.58
2022-08-01T05:45:57.610Z,20.50
2022-08-01T05:48:25.600Z,20.49
2022-08-01T05:50:58.241Z,20.42
2022-08-01T05:53:28.409Z,20.36
2022-08-01T05:55:56.630Z,20.25
2022-08-01T05:58:25.141Z,20.19
2022-08-01T06:00:53.086Z,20.21
2022-08-01T06:03:21.204Z,20.13
2022-08-01T06:05:49.232Z,20.10
2022-08-01T06:08:20.401Z,20.12
2022-08-01T06:10:51.169Z,20.14
2022-08-01T06:13:22.110Z,20.16
2022-08-01T06:15:50.770Z,20.12
2022-08-01T06:18:21.278Z,20.13
2022-08-01T06:20:51.592Z,20.11
2022-08-01T06:23:32.006Z,20.12
2022-08-01T06:26:04.770Z,20.04
2022-08-01T06:28:35.074Z,20.05
2022-08-01T06:31:07.591Z,20.00
2022-08-01T06:33:38.810Z,20.00
2022-08-01T06:36:08.971Z,20.03
2022-08-01T06:38:39.017Z,20.09
2022-08-01T06:41:10.761Z,20.16
2022-08-01T06:43:40.431Z,20.15
2022-08-01T06:46:11.152Z,20.17
2022-08-01T06:48:41.931Z,20.17
2022-08-01T06:51:15.425Z,20.19
2022-08-01T06:53:46.372Z,20.11
2022-08-01T06:56:18.687Z,20.14
2022-08-01T06:58:49.362Z,20.08
2022-08-01T07:01:20.913Z,20.12
2022-08-01T07:03:54.420Z,20.07
2022-08-01T07:06:26.760Z,20.01
2022-08-01T07:09:02.818Z,19.98
2022-08-01T07:11:42.623Z,20.00
2022-08-01T07:14:12.109Z,19.98
2022-08-01T07:16:42.626Z,19.94
2022-08-01T07:19:14.600Z,19.93
2022-08-01T07:21:45.350Z,19.89
2022-08-01T07:24:19.647Z,19.80
2022-08-01T07:26:55.999Z,19.92
2022-08-01T07:29:27.779Z,19.88
2022-08-01T07:32:00.023Z,19.87
2022-08-01T07:34:29.659Z,19.94
2022-08-01T07:36:59.159Z,20.01
2022-08-01T07:39:28.767Z,20.12
2022-08-01T07:42:07.349Z,20.13
2022-08-01T07:44:37.851Z,20.27
2022-08-01T07:47:08.499Z,20.32
2022-08-01T07:49:40.733Z,20.34
2022-08-01T07:52:10.723Z,20.35
2022-08-01T07:54:41.208Z,20.35
2022-08-01T07:57:12.364Z,20.42
2022-08-01T07:59:42.586Z,20.46
2022-08-01T08:02:13.258Z,20.47
2022-08-01T08:04:48.661Z,20.39
2022-08-01T08:07:18.692Z,20.35
2022-08-01T08:09:57.639Z,20.37
2022-08-01T08:12:39.776Z,20.32
2022-08-01T08:15:10.812Z,20.29
2022-08-01T08:17:41.198Z,20.46
2022-08-01T08:20:12.832Z,20.46
2022-08-01T08:22:43.576Z,20.50
2022-08-01T08:25:13.286Z,20.62
2022-08-01T08:27:45.661Z,20.60
2022-08-01T08:30:18.231Z,20.65
2022-08-01T08:32:48.988Z,20.62
2022-08-01T08:35:23.166Z,20.56
2022-08-01T08:38:10.632Z,20.52
2022-08-01T08:40:42.836Z,20.51
2022-08-01T08:43:18.137Z,20.59
2022-08-01T08:45:58.842Z,20.65
2022-08-01T08:48:35.861Z,20.76
2022-08-01T08:51:09.784Z,20.79
2022-08-01T08:53:45.222Z,20.87
2022-08-01T08:56:16.658Z,20.82
2022-08-01T08:58:50.137Z,20.80
2022-08-01T09:01:22.749Z,20.86
2022-08-01T09:03:55.230Z,20.83
2022-08-01T09:06:26.303Z,20.85
2022-08-01T09:08:59.411Z,20.80
2022-08-01T09:11:31.485Z,20.71
2022-08-01T09:14:10.230Z,20.70
2022-08-01T09:16:48.304Z,20.76
2022-08-01T09:19:39.614Z,20.84
2022-08-01T09:22:15.279Z,20.87
2022-08-01T09:25:00.601Z,20.79
2022-08-01T09:27:30.524Z,20.74
2022-08-01T09:30:13.799Z,20.85
2022-08-01T09:33:11.168Z,20.96
2022-08-01T09:35:59.316Z,20.71
2022-08-01T09:38:30.213Z,20.63
2022-08-01T09:41:02.735Z,20.71
2022-08-01T09:43:34.520Z,20.76
2022-08-01T09:46:12.873Z,20.82
2022-08-01T09:48:59.243Z,20.93
2022-08-01T09:51:58.949Z,20.77
2022-08-01T09:54:37.630Z,20.79
2022-08-01T09:57:16.575Z,20.85
2022-08-01T09:59:58.265Z,20.91
2022-08-01T10:02:36.725Z,21.08
2022-08-01T10:05:09.601Z,21.17
2022-08-01T10:07:59.290Z,21.20
2022-08-01T10:10:31.758Z,21.12
2022-08-01T10:13:04.542Z,21.16
2022-08-01T10:15:36.904Z,21.16
2022-08-01T10:18:16.346Z,21.16
2022-08-01T10:20:50.565Z,21.17
2022-08-01T10:23:22.817Z,21.22
2022-08-01T10:26:10.057Z,21.38
2022-08-01T10:28:41.983Z,21.38
2022-08-01T10:31:13.152Z,21.34
2022-08-01T10:33:51.575Z,21.18
2022-08-01T10:36:25.403Z,21.23
2022-08-01T10:38:55.807Z,21.20
2022-08-01T10:41:24.352Z,21.24
2022-08-01T10:43:54.021Z,21.32
2022-08-01T10:46:23.190Z,21.45
2022-08-01T10:48:58.798Z,21.48
2022-08-01T10:51:52.275Z,21.52
2022-08-01T10:54:22.216Z,21.42
2022-08-01T10:56:58.256Z,21.45
2022-08-01T10:59:50.651Z,21.55
2022-08-01T11:02:32.976Z,21.68
2022-08-01T11:05:10.907Z,21.52
2022-08-01T11:07:56.838Z,21.55
2022-08-01T11:10:36.961Z,21.57
2022-08-01T11:13:09.500Z,21.64
2022-08-01T11:15:50.214Z,21.72
2022-08-01T11:18:47.607Z,21.71
2022-08-01T11:21:58.666Z,21.70
2022-08-01T11:24:15.595Z,21.74
2022-08-01T11:27:18.067Z,21.85
2022-08-01T11:30:26.593Z,21.81
2022-08-01T11:33:12.226Z,21.82
2022-08-01T11:36:00.752Z,21.81
2022-08-01T11:38:31.713Z,21.63
2022-08-01T11:41:12.526Z,21.72
2022-08-01T11:43:59.273Z,21.88
2022-08-01T11:46:55.316Z,21.90
2022-08-01T11:49:29.636Z,21.93
2022-08-01T11:52:00.099Z,21.99
2022-08-01T11:54:35.044Z,21.91
2022-08-01T11:57:09.138Z,21.78
2022-08-01T12:00:02.440Z,21.80
2022-08-01T12:02:45.381Z,21.83
2022-08-01T12:05:24.570Z,21.86
2022-08-01T12:07:56.518Z,21.95
2022-08-01T12:10:47.049Z,22.14
2022-08-01T12:13:19.214Z,22.33
2022-08-01T12:15:56.491Z,22.36
2022-08-01T12:18:26.518Z,22.48
2022-08-01T12:21:06.011Z,22.43
2022-08-01T12:23:35.538Z,22.47
2022-08-01T12:26:06.728Z,22.62
2022-08-01T12:28:41.852Z,22.83
2022-08-01T12:31:12.756Z,22.80
2022-08-01T12:33:43.310Z,22.85
2022-08-01T12:36:15.837Z,22.81
2022-08-01T12:38:47.998Z,22.80
2022-08-01T12:41:20.344Z,22.98
2022-08-01T12:43:52.259Z,23.09
2022-08-01T12:46:23.306Z,23.20
2022-08-01T12:48:54.171Z,23.28
2022-08-01T12:51:24.829Z,23.29
2022-08-01T12:53:57.090Z,23.21
2022-08-01T12:56:35.949Z,23.29
2022-08-01T12:59:54.435Z,23.44
2022-08-01T13:02:35.133Z,23.32
2022-08-01T13:05:08.108Z,23.32
2022-08-01T13:07:45.711Z,23.49
2022-08-01T13:10:18.457Z,23.81
2022-08-01T13:12:56.721Z,23.73
2022-08-01T13:15:32.943Z,23.56
2022-08-01T13:18:28.928Z,23.49
2022-08-01T13:21:19.189Z,23.56
2022-08-01T13:24:08.649Z,23.65
2022-08-01T13:26:47.843Z,23.83
2022-08-01T13:29:22.107Z,23.87
2022-08-01T13:31:53.798Z,23.85
2022-08-01T13:34:34.342Z,23.98
2022-08-01T13:37:06.123Z,23.92
2022-08-01T13:39:46.592Z,23.95
2022-08-01T13:42:19.446Z,24.11
2022-08-01T13:44:54.203Z,24.31
2022-08-01T13:47:31.398Z,24.16
2022-08-01T13:50:04.268Z,24.19
2022-08-01T13:52:35.109Z,24.26
2022-08-01T13:55:10.954Z,24.26
2022-08-01T13:57:41.233Z,24.24
2022-08-01T14:00:15.643Z,24.21
2022-08-01T14:02:46.777Z,24.32
2022-08-01T14:05:17.991Z,24.49
2022-08-01T14:07:49.001Z,24.52
2022-08-01T14:10:21.017Z,24.48
2022-08-01T14:12:53.547Z,24.40
2022-08-01T14:15:37.579Z,24.43
2022-08-01T14:18:11.334Z,24.37
2022-08-01T14:20:47.107Z,24.54
2022-08-01T14:23:21.379Z,24.43
2022-08-01T14:26:01.668Z,24.24
2022-08-01T14:28:36.198Z,24.32
2022-08-01T14:31:10.017Z,24.37
2022-08-01T14:33:40.944Z,24.45
2022-08-01T14:36:29.989Z,24.63
2022-08-01T14:39:14.975Z,24.76
2022-08-01T14:41:46.605Z,24.87
2022-08-01T14:44:19.822Z,24.94
2022-08-01T14:46:57.936Z,24.99
2022-08-01T14:49:30.489Z,24.97
2022-08-01T14:52:01.128Z,24.90
2022-08-01T14:54:32.250Z,24.77
2022-08-01T14:57:02.660Z,24.68
2022-08-01T14:59:33.446Z,24.67
2022-08-01T15:02:05.320Z,24.89
2022-08-01T15:04:39.306Z,25.34
2022-08-01T15:07:10.116Z,25.77
2022-08-01T15:09:46.334Z,26.15
2022-08-01T15:12:17.037Z,26.46
2022-08-01T15:14:52.158Z,26.65
2022-08-01T15:17:26.155Z,26.71
2022-08-01T15:19:55.732Z,26.97
2022-08-01T15:22:28.896Z,27.24
2022-08-01T15:25:02.700Z,27.41
2022-08-01T15:27:33.971Z,27.63
2022-08-01T15:30:08.268Z,27.83
2022-08-01T15:32:39.557Z,28.06
2022-08-01T15:35:11.235Z,28.25
2022-08-01T15:37:43.077Z,28.41
2022-08-01T15:40:14.652Z,28.60
2022-08-01T15:42:44.237Z,28.65
2022-08-01T15:45:44.617Z,28.73
2022-08-01T15:48:08.612Z,28.59
2022-08-01T15:50:38.805Z,28.49
2022-08-01T15:53:09.103Z,28.61
2022-08-01T15:55:38.402Z,28.76
2022-08-01T15:58:12.257Z,28.79
2022-08-01T16:00:41.064Z,28.78
2022-08-01T16:03:11.797Z,28.81
2022-08-01T16:05:44.253Z,28.80
2022-08-01T16:08:14.742Z,28.81
2022-08-01T16:10:44.995Z,28.88
2022-08-01T16:13:16.755Z,29.00
2022-08-01T16:15:45.961Z,29.09
2022-08-01T16:18:18.209Z,29.06
2022-08-01T16:20:49.145Z,28.99
2022-08-01T16:23:21.734Z,29.02
2022-08-01T16:25:50.348Z,29.08
2022-08-01T16:28:18.556Z,29.15
2022-08-01T16:30:54.221Z,29.26
2022-08-01T16:33:45.961Z,29.33
2022-08-01T16:36:23.316Z,29.38
2022-08-01T16:38:53.247Z,29.42
2022-08-01T16:41:21.807Z,29.37
2022-08-01T16:43:53.907Z,29.27
2022-08-01T16:46:25.062Z,29.23
2022-08-01T16:48:55.721Z,29.26
2022-08-01T16:51:24.718Z,29.34
2022-08-01T16:53:52.913Z,29.38
2022-08-01T16:56:21.501Z,29.47
2022-08-01T16:58:52.908Z,29.47
2022-08-01T17:02:03.312Z,29.36
2022-08-01T17:04:10.933Z,29.35
2022-08-01T17:06:39.198Z,29.34
2022-08-01T17:09:07.530Z,29.39
2022-08-01T17:11:35.993Z,29.42
2022-08-01T17:14:04.102Z,29.38
2022-08-01T17:16:32.500Z,29.36
2022-08-01T17:19:00.470Z,29.29
2022-08-01T17:21:30.050Z,29.19
2022-08-01T17:23:58.123Z,29.05
2022-08-01T17:26:26.642Z,29.00
2022-08-01T17:28:54.869Z,29.01
2022-08-01T17:31:23.112Z,29.06
2022-08-01T17:33:54.757Z,29.12
2022-08-01T17:36:23.571Z,29.11
2022-08-01T17:38:53.286Z,29.04
2022-08-01T17:41:21.552Z,29.03
2022-08-01T17:43:49.619Z,28.98
2022-08-01T17:46:18.173Z,28.79
2022-08-01T17:48:46.786Z,28.73
2022-08-01T17:51:19.358Z,28.70
2022-08-01T17:53:56.743Z,28.67
2022-08-01T17:56:28.412Z,28.60
2022-08-01T17:58:57.355Z,28.48
2022-08-01T18:01:26.484Z,28.45
2022-08-01T18:03:55.668Z,28.40
2022-08-01T18:06:27.318Z,28.37
2022-08-01T18:08:59.375Z,28.32
2022-08-01T18:11:29.239Z,28.21
2022-08-01T18:14:05.601Z,28.16
2022-08-01T18:16:33.643Z,28.05
2022-08-01T18:19:01.735Z,27.94
2022-08-01T18:21:32.110Z,27.85
2022-08-01T18:24:01.452Z,27.76
2022-08-01T18:26:30.770Z,27.65
2022-08-01T18:28:58.833Z,27.56
2022-08-01T18:31:26.876Z,27.49
2022-08-01T18:33:55.014Z,27.42
2022-08-01T18:36:32.811Z,27.33
2022-08-01T18:39:10.349Z,27.23
2022-08-01T18:41:40.848Z,27.11
2022-08-01T18:44:09.377Z,26.99
2022-08-01T18:46:39.141Z,26.92
2022-08-01T18:49:09.790Z,26.87
2022-08-01T18:51:43.920Z,26.80
2022-08-01T18:54:13.404Z,26.76
2022-08-01T18:56:43.563Z,26.75
2022-08-01T18:59:11.637Z,26.71
2022-08-01T19:01:40.140Z,26.70
2022-08-01T19:04:08.518Z,26.67
2022-08-01T19:06:37.014Z,26.63
2022-08-01T19:09:05.672Z,26.60
2022-08-01T19:11:35.202Z,26.57
2022-08-01T19:14:04.647Z,26.57
2022-08-01T19:16:33.236Z,26.49
2022-08-01T19:19:04.782Z,26.34
2022-08-01T19:21:33.197Z,26.12
2022-08-01T19:24:23.453Z,25.86
2022-08-01T19:26:57.791Z,25.66
2022-08-01T19:29:35.570Z,25.52
2022-08-01T19:32:10.437Z,25.45
2022-08-01T19:34:44.308Z,25.57
2022-08-01T19:37:12.667Z,25.53
2022-08-01T19:39:47.437Z,25.27
2022-08-01T19:42:17.448Z,25.15
2022-08-01T19:44:52.256Z,25.13
2022-08-01T19:48:13.894Z,25.19
2022-08-01T19:50:53.046Z,25.10
2022-08-01T19:53:28.729Z,25.10
2022-08-01T19:55:59.897Z,25.12
2022-08-01T19:58:29.695Z,25.11
2022-08-01T20:00:59.083Z,25.12
2022-08-01T20:03:32.380Z,25.13
2022-08-01T20:06:02.190Z,25.12
2022-08-01T20:08:36.397Z,25.09
2022-08-01T20:11:13.337Z,25.09
2022-08-01T20:13:43.171Z,25.07
2022-08-01T20:16:13.583Z,25.07
2022-08-01T20:18:44.029Z,25.06
2022-08-01T20:21:15.728Z,25.04
2022-08-01T20:23:46.519Z,25.03
2022-08-01T20:26:18.484Z,25.02
2022-08-01T20:28:51.051Z,25.02
2022-08-01T20:31:24.727Z,25.01
2022-08-01T20:33:57.290Z,24.91
2022-08-01T20:36:28.321Z,24.90
2022-08-01T20:39:00.988Z,24.92
2022-08-01T20:41:31.615Z,24.90
2022-08-01T20:44:01.226Z,24.90
2022-08-01T20:46:35.182Z,24.87
2022-08-01T20:49:09.359Z,24.85
2022-08-01T20:51:42.660Z,24.84
2022-08-01T20:54:14.177Z,24.84
2022-08-01T20:56:52.393Z,24.84
2022-08-01T20:59:39.501Z,24.83
2022-08-01T21:03:02.480Z,24.85
2022-08-01T21:05:55.989Z,24.79
2022-08-01T21:08:37.385Z,24.80
2022-08-01T21:11:07.448Z,24.74
2022-08-01T21:13:43.255Z,24.76
2022-08-01T21:16:24.366Z,24.74
2022-08-01T21:21:56.867Z,24.78
2022-08-01T21:24:31.120Z,24.71
2022-08-01T21:27:02.412Z,24.69
2022-08-01T21:29:36.633Z,24.69
2022-08-01T21:32:16.103Z,24.64
2022-08-01T21:34:52.537Z,24.62
2022-08-01T21:37:24.154Z,24.61
2022-08-01T21:39:58.760Z,24.61
2022-08-01T21:42:29.480Z,24.61
2022-08-01T21:45:05.885Z,24.60
2022-08-01T21:47:37.724Z,24.58
2022-08-01T21:50:10.771Z,24.62
2022-08-01T21:52:45.387Z,24.44
2022-08-01T21:55:35.335Z,24.03
2022-08-01T21:58:21.300Z,23.74
2022-08-01T22:00:57.537Z,23.44
2022-08-01T22:03:35.674Z,23.23
2022-08-01T22:06:23.622Z,22.96
2022-08-01T22:08:54.687Z,22.76
2022-08-01T22:11:28.310Z,22.61
2022-08-01T22:14:03.785Z,22.42
2022-08-01T22:16:41.293Z,22.41
2022-08-01T22:19:32.397Z,22.32
2022-08-01T22:22:04.620Z,22.30
2022-08-01T22:24:53.774Z,22.26
2022-08-01T22:28:05.618Z,22.15
2022-08-01T22:30:15.672Z,22.17
2022-08-01T22:33:15.101Z,22.08
2022-08-01T22:35:36.451Z,22.05
2022-08-01T22:38:09.841Z,22.22
2022-08-01T22:40:44.097Z,21.84
2022-08-01T22:43:30.921Z,21.79
2022-08-01T22:46:22.394Z,21.85
2022-08-01T22:48:53.949Z,21.78
2022-08-01T22:51:35.757Z,21.81
2022-08-01T22:54:12.793Z,21.77
2022-08-01T22:56:45.684Z,21.80
2022-08-01T22:59:16.795Z,21.64
2022-08-01T23:01:50.560Z,21.58
2022-08-01T23:04:29.773Z,21.49
2022-08-01T23:07:05.646Z,21.66
2022-08-01T23:09:53.785Z,21.65
2022-08-01T23:12:28.834Z,21.66
2022-08-01T23:14:59.149Z,21.63
2022-08-01T23:17:29.701Z,21.65
2022-08-01T23:20:02.261Z,21.59
2022-08-01T23:22:33.702Z,21.59
2022-08-01T23:25:06.962Z,21.61
2022-08-01T23:27:55.738Z,21.61
2022-08-01T23:30:29.358Z,21.75
2022-08-01T23:33:02.842Z,21.82
2022-08-01T23:35:31.959Z,21.85
2022-08-01T23:38:03.674Z,21.84
2022-08-01T23:40:36.927Z,21.89
2022-08-01T23:43:16.577Z,21.90
2022-08-01T23:46:03.291Z,21.91
2022-08-01T23:48:34.920Z,21.86
2022-08-01T23:51:04.285Z,21.87
2022-08-01T23:53:38.248Z,21.79
2022-08-01T23:56:08.404Z,21.77
2022-08-01T23:58:37.089Z,21.79
